sensor_id;sensor_type;location;lat;lon;timestamp;P1;durP1;ratioP1;P2;durP2;ratioP2
49828;SDS011;35723;51.194;5.112;2023-06-10T00:01:58;15.55;;;8.57;;
49828;SDS011;35723;51.194;5.112;2023-06-10T00:04:24;15.38;;;8.75;;
49828;SDS011;35723;51.194;5.112;2023-06-10T00:06:51;17.13;;;8.75;;
49828;SDS011;35723;51.194;5.112;2023-06-10T00:09:16;17.60;;;8.98;;
49828;SDS011;35723;51.194;5.112;2023-06-10T00:11:43;17.02;;;8.82;;
49828;SDS011;35723;51.194;5.112;2023-06-10T00:14:09;16.63;;;9.07;;
49828;SDS011;35723;51.194;5.112;2023-06-10T00:16:35;15.95;;;8.68;;
49828;SDS011;35723;51.194;5.112;2023-06-10T00:19:02;19.48;;;8.85;;
49828;SDS011;35723;51.194;5.112;2023-06-10T00:21:29;16.02;;;8.93;;
49828;SDS011;35723;51.194;5.112;2023-06-10T00:23:55;16.08;;;8.52;;
49828;SDS011;35723;51.194;5.112;2023-06-10T00:26:22;18.25;;;8.45;;
49828;SDS011;35723;51.194;5.112;2023-06-10T00:28:48;17.23;;;8.85;;
49828;SDS011;35723;51.194;5.112;2023-06-10T00:31:14;16.88;;;8.65;;
49828;SDS011;35723;51.194;5.112;2023-06-10T00:33:40;20.15;;;8.73;;
49828;SDS011;35723;51.194;5.112;2023-06-10T00:36:06;19.63;;;9.10;;
49828;SDS011;35723;51.194;5.112;2023-06-10T00:38:32;16.55;;;8.68;;
49828;SDS011;35723;51.194;5.112;2023-06-10T00:40:58;19.40;;;8.98;;
49828;SDS011;35723;51.194;5.112;2023-06-10T00:43:24;17.70;;;8.75;;
49828;SDS011;35723;51.194;5.112;2023-06-10T00:45:49;18.45;;;8.65;;
49828;SDS011;35723;51.194;5.112;2023-06-10T00:48:16;14.88;;;8.55;;
49828;SDS011;35723;51.194;5.112;2023-06-10T00:50:43;17.83;;;8.88;;
49828;SDS011;35723;51.194;5.112;2023-06-10T00:53:08;15.70;;;8.70;;
49828;SDS011;35723;51.194;5.112;2023-06-10T00:55:35;19.13;;;9.13;;
49828;SDS011;35723;51.194;5.112;2023-06-10T00:58:02;19.02;;;9.00;;
49828;SDS011;35723;51.194;5.112;2023-06-10T01:00:28;16.40;;;8.50;;
49828;SDS011;35723;51.194;5.112;2023-06-10T01:02:54;17.88;;;8.82;;
49828;SDS011;35723;51.194;5.112;2023-06-10T01:05:20;18.85;;;8.90;;
49828;SDS011;35723;51.194;5.112;2023-06-10T01:07:58;17.50;;;9.25;;
49828;SDS011;35723;51.194;5.112;2023-06-10T01:13:14;20.73;;;9.48;;
49828;SDS011;35723;51.194;5.112;2023-06-10T01:15:41;16.98;;;9.07;;
49828;SDS011;35723;51.194;5.112;2023-06-10T01:18:08;18.20;;;9.75;;
49828;SDS011;35723;51.194;5.112;2023-06-10T01:20:36;17.23;;;9.63;;
49828;SDS011;35723;51.194;5.112;2023-06-10T01:23:05;20.92;;;9.95;;
49828;SDS011;35723;51.194;5.112;2023-06-10T01:25:31;18.98;;;10.30;;
49828;SDS011;35723;51.194;5.112;2023-06-10T01:30:46;18.30;;;10.10;;
49828;SDS011;35723;51.194;5.112;2023-06-10T01:33:14;16.80;;;9.68;;
49828;SDS011;35723;51.194;5.112;2023-06-10T01:35:46;17.80;;;9.50;;
49828;SDS011;35723;51.194;5.112;2023-06-10T01:38:13;20.23;;;9.55;;
49828;SDS011;35723;51.194;5.112;2023-06-10T01:40:40;16.88;;;9.63;;
49828;SDS011;35723;51.194;5.112;2023-06-10T01:43:07;18.50;;;9.75;;
49828;SDS011;35723;51.194;5.112;2023-06-10T01:45:33;18.27;;;9.48;;
49828;SDS011;35723;51.194;5.112;2023-06-10T01:47:58;18.38;;;10.10;;
49828;SDS011;35723;51.194;5.112;2023-06-10T01:50:24;19.70;;;10.02;;
49828;SDS011;35723;51.194;5.112;2023-06-10T01:52:50;18.15;;;9.48;;
49828;SDS011;35723;51.194;5.112;2023-06-10T01:55:15;20.35;;;9.40;;
49828;SDS011;35723;51.194;5.112;2023-06-10T01:57:41;19.30;;;9.77;;
49828;SDS011;35723;51.194;5.112;2023-06-10T02:00:07;20.35;;;9.98;;
49828;SDS011;35723;51.194;5.112;2023-06-10T02:02:33;17.98;;;9.55;;
49828;SDS011;35723;51.194;5.112;2023-06-10T02:04:59;18.88;;;9.88;;
49828;SDS011;35723;51.194;5.112;2023-06-10T02:07:25;16.58;;;9.32;;
49828;SDS011;35723;51.194;5.112;2023-06-10T02:09:50;18.42;;;9.93;;
49828;SDS011;35723;51.194;5.112;2023-06-10T02:12:16;17.15;;;9.65;;
49828;SDS011;35723;51.194;5.112;2023-06-10T02:14:42;18.55;;;9.50;;
49828;SDS011;35723;51.194;5.112;2023-06-10T02:17:07;20.00;;;10.27;;
49828;SDS011;35723;51.194;5.112;2023-06-10T02:19:38;18.35;;;9.70;;
49828;SDS011;35723;51.194;5.112;2023-06-10T02:22:07;19.33;;;10.05;;
49828;SDS011;35723;51.194;5.112;2023-06-10T02:24:35;18.15;;;9.90;;
49828;SDS011;35723;51.194;5.112;2023-06-10T02:27:01;18.77;;;10.32;;
49828;SDS011;35723;51.194;5.112;2023-06-10T02:29:28;18.67;;;9.73;;
49828;SDS011;35723;51.194;5.112;2023-06-10T02:31:54;17.67;;;9.75;;
49828;SDS011;35723;51.194;5.112;2023-06-10T02:34:20;17.45;;;10.00;;
49828;SDS011;35723;51.194;5.112;2023-06-10T02:36:45;18.48;;;9.88;;
49828;SDS011;35723;51.194;5.112;2023-06-10T02:39:14;17.90;;;9.90;;
49828;SDS011;35723;51.194;5.112;2023-06-10T02:41:39;18.65;;;10.02;;
49828;SDS011;35723;51.194;5.112;2023-06-10T02:44:05;16.70;;;9.55;;
49828;SDS011;35723;51.194;5.112;2023-06-10T02:46:30;21.02;;;9.88;;
49828;SDS011;35723;51.194;5.112;2023-06-10T02:48:57;21.70;;;10.52;;
49828;SDS011;35723;51.194;5.112;2023-06-10T02:51:22;20.75;;;10.18;;
49828;SDS011;35723;51.194;5.112;2023-06-10T02:53:48;18.27;;;9.90;;
49828;SDS011;35723;51.194;5.112;2023-06-10T02:56:15;20.27;;;10.63;;
49828;SDS011;35723;51.194;5.112;2023-06-10T02:58:41;18.70;;;11.02;;
49828;SDS011;35723;51.194;5.112;2023-06-10T03:01:07;17.92;;;10.18;;
49828;SDS011;35723;51.194;5.112;2023-06-10T03:03:35;18.15;;;11.23;;
49828;SDS011;35723;51.194;5.112;2023-06-10T03:06:01;18.42;;;10.40;;
49828;SDS011;35723;51.194;5.112;2023-06-10T03:08:29;19.25;;;10.38;;
49828;SDS011;35723;51.194;5.112;2023-06-10T03:10:55;22.75;;;11.02;;
49828;SDS011;35723;51.194;5.112;2023-06-10T03:13:21;18.00;;;10.57;;
49828;SDS011;35723;51.194;5.112;2023-06-10T03:15:48;20.48;;;10.68;;
49828;SDS011;35723;51.194;5.112;2023-06-10T03:18:14;20.25;;;10.85;;
49828;SDS011;35723;51.194;5.112;2023-06-10T03:20:40;18.98;;;11.10;;
49828;SDS011;35723;51.194;5.112;2023-06-10T03:23:06;17.67;;;11.02;;
49828;SDS011;35723;51.194;5.112;2023-06-10T03:25:32;17.67;;;11.13;;
49828;SDS011;35723;51.194;5.112;2023-06-10T03:27:58;20.83;;;11.45;;
49828;SDS011;35723;51.194;5.112;2023-06-10T03:30:23;20.90;;;11.68;;
49828;SDS011;35723;51.194;5.112;2023-06-10T03:32:49;19.45;;;11.13;;
49828;SDS011;35723;51.194;5.112;2023-06-10T03:35:15;19.65;;;11.27;;
49828;SDS011;35723;51.194;5.112;2023-06-10T03:37:41;21.17;;;11.15;;
49828;SDS011;35723;51.194;5.112;2023-06-10T03:40:07;20.90;;;11.60;;
49828;SDS011;35723;51.194;5.112;2023-06-10T03:42:33;21.08;;;11.80;;
49828;SDS011;35723;51.194;5.112;2023-06-10T03:45:00;20.42;;;11.27;;
49828;SDS011;35723;51.194;5.112;2023-06-10T03:47:25;18.45;;;11.40;;
49828;SDS011;35723;51.194;5.112;2023-06-10T03:49:51;19.20;;;11.25;;
49828;SDS011;35723;51.194;5.112;2023-06-10T03:52:18;21.65;;;11.30;;
49828;SDS011;35723;51.194;5.112;2023-06-10T03:54:43;20.55;;;11.57;;
49828;SDS011;35723;51.194;5.112;2023-06-10T03:57:09;21.33;;;11.88;;
49828;SDS011;35723;51.194;5.112;2023-06-10T03:59:35;19.77;;;11.20;;
49828;SDS011;35723;51.194;5.112;2023-06-10T04:02:00;21.20;;;11.25;;
49828;SDS011;35723;51.194;5.112;2023-06-10T04:04:26;20.20;;;11.30;;
49828;SDS011;35723;51.194;5.112;2023-06-10T04:06:52;23.02;;;11.65;;
49828;SDS011;35723;51.194;5.112;2023-06-10T04:09:18;22.60;;;11.23;;
49828;SDS011;35723;51.194;5.112;2023-06-10T04:11:43;19.67;;;11.30;;
49828;SDS011;35723;51.194;5.112;2023-06-10T04:14:09;18.27;;;10.98;;
49828;SDS011;35723;51.194;5.112;2023-06-10T04:16:35;19.33;;;10.93;;
49828;SDS011;35723;51.194;5.112;2023-06-10T04:19:00;20.05;;;11.15;;
49828;SDS011;35723;51.194;5.112;2023-06-10T04:21:26;20.00;;;10.80;;
49828;SDS011;35723;51.194;5.112;2023-06-10T04:23:52;17.85;;;10.68;;
49828;SDS011;35723;51.194;5.112;2023-06-10T04:26:18;20.40;;;10.80;;
49828;SDS011;35723;51.194;5.112;2023-06-10T04:28:44;18.40;;;11.10;;
49828;SDS011;35723;51.194;5.112;2023-06-10T04:31:09;21.23;;;11.57;;
49828;SDS011;35723;51.194;5.112;2023-06-10T04:33:35;21.60;;;11.00;;
49828;SDS011;35723;51.194;5.112;2023-06-10T04:36:01;21.60;;;10.82;;
49828;SDS011;35723;51.194;5.112;2023-06-10T04:38:27;21.80;;;10.82;;
49828;SDS011;35723;51.194;5.112;2023-06-10T04:40:53;19.38;;;11.02;;
49828;SDS011;35723;51.194;5.112;2023-06-10T04:43:19;22.25;;;11.25;;
49828;SDS011;35723;51.194;5.112;2023-06-10T04:45:44;20.88;;;11.48;;
49828;SDS011;35723;51.194;5.112;2023-06-10T04:48:10;19.92;;;11.48;;
49828;SDS011;35723;51.194;5.112;2023-06-10T04:50:36;21.65;;;11.48;;
49828;SDS011;35723;51.194;5.112;2023-06-10T04:53:02;20.63;;;11.63;;
49828;SDS011;35723;51.194;5.112;2023-06-10T04:55:28;20.92;;;10.82;;
49828;SDS011;35723;51.194;5.112;2023-06-10T04:57:54;21.23;;;11.32;;
49828;SDS011;35723;51.194;5.112;2023-06-10T05:00:20;21.35;;;11.65;;
49828;SDS011;35723;51.194;5.112;2023-06-10T05:02:46;21.25;;;11.20;;
49828;SDS011;35723;51.194;5.112;2023-06-10T05:05:17;20.65;;;11.15;;
49828;SDS011;35723;51.194;5.112;2023-06-10T05:07:43;19.33;;;11.50;;
49828;SDS011;35723;51.194;5.112;2023-06-10T05:10:10;23.75;;;11.15;;
49828;SDS011;35723;51.194;5.112;2023-06-10T05:12:37;20.55;;;11.43;;
49828;SDS011;35723;51.194;5.112;2023-06-10T05:15:04;21.13;;;11.25;;
49828;SDS011;35723;51.194;5.112;2023-06-10T05:17:31;22.65;;;11.48;;
49828;SDS011;35723;51.194;5.112;2023-06-10T05:19:57;20.92;;;10.90;;
49828;SDS011;35723;51.194;5.112;2023-06-10T05:22:22;19.15;;;11.05;;
49828;SDS011;35723;51.194;5.112;2023-06-10T05:24:50;20.98;;;10.95;;
49828;SDS011;35723;51.194;5.112;2023-06-10T05:27:16;21.67;;;11.18;;
49828;SDS011;35723;51.194;5.112;2023-06-10T05:29:42;21.35;;;11.20;;
49828;SDS011;35723;51.194;5.112;2023-06-10T05:32:08;20.13;;;10.60;;
49828;SDS011;35723;51.194;5.112;2023-06-10T05:34:33;24.83;;;11.10;;
49828;SDS011;35723;51.194;5.112;2023-06-10T05:36:59;20.45;;;10.98;;
49828;SDS011;35723;51.194;5.112;2023-06-10T05:39:25;22.50;;;11.15;;
49828;SDS011;35723;51.194;5.112;2023-06-10T05:41:50;19.63;;;10.63;;
49828;SDS011;35723;51.194;5.112;2023-06-10T05:44:16;19.95;;;11.25;;
49828;SDS011;35723;51.194;5.112;2023-06-10T05:46:42;20.60;;;10.50;;
49828;SDS011;35723;51.194;5.112;2023-06-10T05:49:07;19.48;;;10.23;;
49828;SDS011;35723;51.194;5.112;2023-06-10T05:51:33;22.50;;;10.23;;
49828;SDS011;35723;51.194;5.112;2023-06-10T05:53:58;20.90;;;10.25;;
49828;SDS011;35723;51.194;5.112;2023-06-10T05:56:24;19.50;;;9.93;;
49828;SDS011;35723;51.194;5.112;2023-06-10T05:58:50;22.65;;;10.20;;
49828;SDS011;35723;51.194;5.112;2023-06-10T06:01:16;21.85;;;11.27;;
49828;SDS011;35723;51.194;5.112;2023-06-10T06:03:42;18.50;;;9.75;;
49828;SDS011;35723;51.194;5.112;2023-06-10T06:06:07;18.98;;;10.15;;
49828;SDS011;35723;51.194;5.112;2023-06-10T06:08:33;17.88;;;10.13;;
49828;SDS011;35723;51.194;5.112;2023-06-10T06:10:59;18.83;;;10.23;;
49828;SDS011;35723;51.194;5.112;2023-06-10T06:13:24;19.00;;;10.23;;
49828;SDS011;35723;51.194;5.112;2023-06-10T06:15:50;19.80;;;10.13;;
49828;SDS011;35723;51.194;5.112;2023-06-10T06:18:16;18.35;;;10.13;;
49828;SDS011;35723;51.194;5.112;2023-06-10T06:20:43;22.20;;;10.65;;
49828;SDS011;35723;51.194;5.112;2023-06-10T06:23:09;18.60;;;10.05;;
49828;SDS011;35723;51.194;5.112;2023-06-10T06:25:36;24.55;;;11.27;;
49828;SDS011;35723;51.194;5.112;2023-06-10T06:28:04;18.88;;;10.48;;
49828;SDS011;35723;51.194;5.112;2023-06-10T06:30:31;19.25;;;10.20;;
49828;SDS011;35723;51.194;5.112;2023-06-10T06:32:56;17.48;;;9.10;;
49828;SDS011;35723;51.194;5.112;2023-06-10T06:35:22;21.63;;;9.52;;
49828;SDS011;35723;51.194;5.112;2023-06-10T06:37:48;15.30;;;9.05;;
49828;SDS011;35723;51.194;5.112;2023-06-10T06:40:13;20.10;;;9.80;;
49828;SDS011;35723;51.194;5.112;2023-06-10T06:42:39;19.85;;;10.07;;
49828;SDS011;35723;51.194;5.112;2023-06-10T06:45:05;17.63;;;9.02;;
49828;SDS011;35723;51.194;5.112;2023-06-10T06:47:31;18.45;;;9.65;;
49828;SDS011;35723;51.194;5.112;2023-06-10T06:49:56;22.27;;;9.18;;
49828;SDS011;35723;51.194;5.112;2023-06-10T06:52:22;17.25;;;8.85;;
49828;SDS011;35723;51.194;5.112;2023-06-10T06:54:48;16.40;;;9.32;;
49828;SDS011;35723;51.194;5.112;2023-06-10T06:57:14;21.38;;;9.10;;
49828;SDS011;35723;51.194;5.112;2023-06-10T06:59:40;21.00;;;9.30;;
49828;SDS011;35723;51.194;5.112;2023-06-10T07:02:06;18.80;;;9.20;;
49828;SDS011;35723;51.194;5.112;2023-06-10T07:04:31;20.27;;;9.50;;
49828;SDS011;35723;51.194;5.112;2023-06-10T07:06:57;20.42;;;9.50;;
49828;SDS011;35723;51.194;5.112;2023-06-10T07:09:22;17.52;;;9.18;;
49828;SDS011;35723;51.194;5.112;2023-06-10T07:11:48;19.35;;;9.35;;
49828;SDS011;35723;51.194;5.112;2023-06-10T07:14:14;21.45;;;8.82;;
49828;SDS011;35723;51.194;5.112;2023-06-10T07:16:40;20.10;;;8.55;;
49828;SDS011;35723;51.194;5.112;2023-06-10T07:19:05;19.17;;;8.82;;
49828;SDS011;35723;51.194;5.112;2023-06-10T07:21:31;16.27;;;8.73;;
49828;SDS011;35723;51.194;5.112;2023-06-10T07:23:57;20.50;;;8.63;;
49828;SDS011;35723;51.194;5.112;2023-06-10T07:26:23;17.45;;;8.52;;
49828;SDS011;35723;51.194;5.112;2023-06-10T07:28:50;16.20;;;7.90;;
49828;SDS011;35723;51.194;5.112;2023-06-10T07:31:16;16.67;;;8.13;;
49828;SDS011;35723;51.194;5.112;2023-06-10T07:33:42;19.77;;;8.68;;
49828;SDS011;35723;51.194;5.112;2023-06-10T07:36:08;16.10;;;8.50;;
49828;SDS011;35723;51.194;5.112;2023-06-10T07:38:34;16.08;;;7.88;;
49828;SDS011;35723;51.194;5.112;2023-06-10T07:41:00;16.63;;;8.27;;
49828;SDS011;35723;51.194;5.112;2023-06-10T07:43:26;16.65;;;8.52;;
49828;SDS011;35723;51.194;5.112;2023-06-10T07:45:52;18.77;;;8.30;;
49828;SDS011;35723;51.194;5.112;2023-06-10T07:48:17;15.13;;;8.05;;
49828;SDS011;35723;51.194;5.112;2023-06-10T07:50:43;16.42;;;8.27;;
49828;SDS011;35723;51.194;5.112;2023-06-10T07:53:09;14.18;;;8.02;;
49828;SDS011;35723;51.194;5.112;2023-06-10T07:55:35;15.63;;;7.78;;
49828;SDS011;35723;51.194;5.112;2023-06-10T07:58:00;15.98;;;7.90;;
49828;SDS011;35723;51.194;5.112;2023-06-10T08:00:26;16.33;;;8.10;;
49828;SDS011;35723;51.194;5.112;2023-06-10T08:02:51;18.90;;;8.48;;
49828;SDS011;35723;51.194;5.112;2023-06-10T08:05:17;20.88;;;8.10;;
49828;SDS011;35723;51.194;5.112;2023-06-10T08:07:43;18.40;;;7.82;;
49828;SDS011;35723;51.194;5.112;2023-06-10T08:10:09;18.45;;;8.27;;
49828;SDS011;35723;51.194;5.112;2023-06-10T08:12:35;16.15;;;7.43;;
49828;SDS011;35723;51.194;5.112;2023-06-10T08:15:02;17.58;;;7.88;;
49828;SDS011;35723;51.194;5.112;2023-06-10T08:17:28;14.20;;;7.50;;
49828;SDS011;35723;51.194;5.112;2023-06-10T08:19:57;15.57;;;7.70;;
49828;SDS011;35723;51.194;5.112;2023-06-10T08:22:23;17.38;;;7.97;;
49828;SDS011;35723;51.194;5.112;2023-06-10T08:24:48;19.13;;;7.35;;
49828;SDS011;35723;51.194;5.112;2023-06-10T08:27:14;16.58;;;7.32;;
49828;SDS011;35723;51.194;5.112;2023-06-10T08:29:40;17.17;;;7.55;;
49828;SDS011;35723;51.194;5.112;2023-06-10T08:32:05;17.08;;;7.55;;
49828;SDS011;35723;51.194;5.112;2023-06-10T08:34:35;15.23;;;7.50;;
49828;SDS011;35723;51.194;5.112;2023-06-10T08:37:01;16.75;;;7.80;;
49828;SDS011;35723;51.194;5.112;2023-06-10T08:39:27;15.95;;;7.40;;
49828;SDS011;35723;51.194;5.112;2023-06-10T08:42:05;16.70;;;7.10;;
49828;SDS011;35723;51.194;5.112;2023-06-10T08:44:36;16.10;;;7.70;;
49828;SDS011;35723;51.194;5.112;2023-06-10T08:47:06;16.10;;;7.38;;
49828;SDS011;35723;51.194;5.112;2023-06-10T08:49:41;16.55;;;7.50;;
49828;SDS011;35723;51.194;5.112;2023-06-10T08:52:11;15.95;;;7.50;;
49828;SDS011;35723;51.194;5.112;2023-06-10T08:54:59;17.50;;;7.50;;
49828;SDS011;35723;51.194;5.112;2023-06-10T08:57:27;16.95;;;7.57;;
49828;SDS011;35723;51.194;5.112;2023-06-10T08:59:56;16.65;;;7.90;;
49828;SDS011;35723;51.194;5.112;2023-06-10T09:02:23;15.13;;;8.25;;
49828;SDS011;35723;51.194;5.112;2023-06-10T09:04:50;15.45;;;7.65;;
49828;SDS011;35723;51.194;5.112;2023-06-10T09:07:16;15.27;;;7.95;;
49828;SDS011;35723;51.194;5.112;2023-06-10T09:09:43;15.88;;;7.63;;
49828;SDS011;35723;51.194;5.112;2023-06-10T09:12:10;16.45;;;7.90;;
49828;SDS011;35723;51.194;5.112;2023-06-10T09:14:37;19.98;;;7.88;;
49828;SDS011;35723;51.194;5.112;2023-06-10T09:17:03;17.67;;;7.47;;
49828;SDS011;35723;51.194;5.112;2023-06-10T09:19:29;18.10;;;7.60;;
49828;SDS011;35723;51.194;5.112;2023-06-10T09:21:55;17.15;;;7.28;;
49828;SDS011;35723;51.194;5.112;2023-06-10T09:24:24;14.73;;;7.32;;
49828;SDS011;35723;51.194;5.112;2023-06-10T09:26:50;22.73;;;7.93;;
49828;SDS011;35723;51.194;5.112;2023-06-10T09:29:27;15.90;;;7.82;;
49828;SDS011;35723;51.194;5.112;2023-06-10T09:31:52;15.70;;;7.70;;
49828;SDS011;35723;51.194;5.112;2023-06-10T09:34:18;16.85;;;8.10;;
49828;SDS011;35723;51.194;5.112;2023-06-10T09:36:43;17.35;;;7.80;;
49828;SDS011;35723;51.194;5.112;2023-06-10T09:39:17;15.32;;;7.25;;
49828;SDS011;35723;51.194;5.112;2023-06-10T09:41:44;22.10;;;7.75;;
49828;SDS011;35723;51.194;5.112;2023-06-10T09:46:40;19.27;;;7.43;;
49828;SDS011;35723;51.194;5.112;2023-06-10T09:49:06;13.85;;;7.80;;
49828;SDS011;35723;51.194;5.112;2023-06-10T09:51:32;16.67;;;7.68;;
49828;SDS011;35723;51.194;5.112;2023-06-10T09:53:57;16.17;;;7.97;;
49828;SDS011;35723;51.194;5.112;2023-06-10T09:56:36;20.10;;;8.68;;
49828;SDS011;35723;51.194;5.112;2023-06-10T09:59:03;17.63;;;8.02;;
49828;SDS011;35723;51.194;5.112;2023-06-10T10:01:31;15.52;;;7.78;;
49828;SDS011;35723;51.194;5.112;2023-06-10T10:03:58;16.30;;;7.80;;
49828;SDS011;35723;51.194;5.112;2023-06-10T10:06:25;17.17;;;7.78;;
49828;SDS011;35723;51.194;5.112;2023-06-10T10:08:52;16.02;;;7.90;;
49828;SDS011;35723;51.194;5.112;2023-06-10T10:11:19;17.40;;;7.93;;
49828;SDS011;35723;51.194;5.112;2023-06-10T10:13:47;16.15;;;8.18;;
49828;SDS011;35723;51.194;5.112;2023-06-10T10:16:15;16.85;;;7.88;;
49828;SDS011;35723;51.194;5.112;2023-06-10T10:19:04;20.10;;;8.30;;
49828;SDS011;35723;51.194;5.112;2023-06-10T10:21:34;16.08;;;7.97;;
49828;SDS011;35723;51.194;5.112;2023-06-10T10:24:12;20.15;;;7.93;;
49828;SDS011;35723;51.194;5.112;2023-06-10T10:26:42;16.23;;;7.80;;
49828;SDS011;35723;51.194;5.112;2023-06-10T10:29:13;18.05;;;8.00;;
49828;SDS011;35723;51.194;5.112;2023-06-10T10:31:52;16.33;;;7.93;;
49828;SDS011;35723;51.194;5.112;2023-06-10T10:34:21;16.40;;;7.40;;
49828;SDS011;35723;51.194;5.112;2023-06-10T10:36:52;15.52;;;7.93;;
49828;SDS011;35723;51.194;5.112;2023-06-10T10:39:19;17.92;;;7.97;;
49828;SDS011;35723;51.194;5.112;2023-06-10T10:41:45;19.23;;;7.63;;
49828;SDS011;35723;51.194;5.112;2023-06-10T10:44:12;16.42;;;7.68;;
49828;SDS011;35723;51.194;5.112;2023-06-10T10:46:42;16.70;;;7.55;;
49828;SDS011;35723;51.194;5.112;2023-06-10T10:49:09;18.25;;;7.40;;
49828;SDS011;35723;51.194;5.112;2023-06-10T10:51:37;12.98;;;7.40;;
49828;SDS011;35723;51.194;5.112;2023-06-10T10:54:18;15.82;;;7.25;;
49828;SDS011;35723;51.194;5.112;2023-06-10T10:57:09;14.40;;;7.43;;
49828;SDS011;35723;51.194;5.112;2023-06-10T10:59:56;14.85;;;7.50;;
49828;SDS011;35723;51.194;5.112;2023-06-10T11:05:05;17.15;;;7.25;;
49828;SDS011;35723;51.194;5.112;2023-06-10T11:07:32;14.32;;;7.10;;
49828;SDS011;35723;51.194;5.112;2023-06-10T11:09:59;17.20;;;7.13;;
49828;SDS011;35723;51.194;5.112;2023-06-10T11:12:40;15.02;;;7.40;;
49828;SDS011;35723;51.194;5.112;2023-06-10T11:15:06;16.10;;;7.18;;
49828;SDS011;35723;51.194;5.112;2023-06-10T11:17:32;14.57;;;6.57;;
49828;SDS011;35723;51.194;5.112;2023-06-10T11:19:58;17.00;;;7.35;;
49828;SDS011;35723;51.194;5.112;2023-06-10T11:22:24;17.17;;;7.18;;
49828;SDS011;35723;51.194;5.112;2023-06-10T11:24:50;15.55;;;7.43;;
49828;SDS011;35723;51.194;5.112;2023-06-10T11:27:17;17.40;;;7.60;;
49828;SDS011;35723;51.194;5.112;2023-06-10T11:29:57;12.05;;;6.85;;
49828;SDS011;35723;51.194;5.112;2023-06-10T11:32:43;16.50;;;7.18;;
49828;SDS011;35723;51.194;5.112;2023-06-10T11:35:09;14.90;;;6.95;;
49828;SDS011;35723;51.194;5.112;2023-06-10T11:37:35;13.77;;;6.70;;
49828;SDS011;35723;51.194;5.112;2023-06-10T11:40:01;13.15;;;7.00;;
49828;SDS011;35723;51.194;5.112;2023-06-10T11:42:27;15.25;;;7.00;;
49828;SDS011;35723;51.194;5.112;2023-06-10T11:44:54;14.02;;;6.60;;
49828;SDS011;35723;51.194;5.112;2023-06-10T11:47:20;12.48;;;6.90;;
49828;SDS011;35723;51.194;5.112;2023-06-10T11:49:55;19.17;;;6.65;;
49828;SDS011;35723;51.194;5.112;2023-06-10T11:52:31;16.42;;;6.72;;
49828;SDS011;35723;51.194;5.112;2023-06-10T11:54:58;14.10;;;6.60;;
49828;SDS011;35723;51.194;5.112;2023-06-10T11:57:24;13.23;;;6.90;;
49828;SDS011;35723;51.194;5.112;2023-06-10T11:59:50;12.93;;;6.40;;
49828;SDS011;35723;51.194;5.112;2023-06-10T12:02:16;16.42;;;6.82;;
49828;SDS011;35723;51.194;5.112;2023-06-10T12:04:44;19.05;;;6.43;;
49828;SDS011;35723;51.194;5.112;2023-06-10T12:07:14;14.48;;;6.40;;
49828;SDS011;35723;51.194;5.112;2023-06-10T12:09:43;17.35;;;7.40;;
49828;SDS011;35723;51.194;5.112;2023-06-10T12:12:09;14.40;;;6.38;;
49828;SDS011;35723;51.194;5.112;2023-06-10T12:19:57;17.92;;;6.47;;
49828;SDS011;35723;51.194;5.112;2023-06-10T12:22:23;16.40;;;6.85;;
49828;SDS011;35723;51.194;5.112;2023-06-10T12:25:02;16.30;;;6.70;;
49828;SDS011;35723;51.194;5.112;2023-06-10T12:27:31;13.80;;;6.45;;
49828;SDS011;35723;51.194;5.112;2023-06-10T12:29:59;13.57;;;6.70;;
49828;SDS011;35723;51.194;5.112;2023-06-10T12:32:42;13.00;;;6.18;;
49828;SDS011;35723;51.194;5.112;2023-06-10T12:35:10;12.15;;;6.45;;
49828;SDS011;35723;51.194;5.112;2023-06-10T12:37:38;12.38;;;6.13;;
49828;SDS011;35723;51.194;5.112;2023-06-10T12:40:04;22.67;;;6.05;;
49828;SDS011;35723;51.194;5.112;2023-06-10T12:42:31;13.75;;;6.15;;
49828;SDS011;35723;51.194;5.112;2023-06-10T12:45:00;13.82;;;6.82;;
49828;SDS011;35723;51.194;5.112;2023-06-10T12:47:32;10.60;;;6.30;;
49828;SDS011;35723;51.194;5.112;2023-06-10T12:50:03;15.18;;;6.50;;
49828;SDS011;35723;51.194;5.112;2023-06-10T12:52:31;14.68;;;6.70;;
49828;SDS011;35723;51.194;5.112;2023-06-10T12:54:57;15.48;;;6.97;;
49828;SDS011;35723;51.194;5.112;2023-06-10T12:57:23;15.00;;;6.43;;
49828;SDS011;35723;51.194;5.112;2023-06-10T12:59:49;12.75;;;6.03;;
49828;SDS011;35723;51.194;5.112;2023-06-10T13:02:17;12.73;;;5.90;;
49828;SDS011;35723;51.194;5.112;2023-06-10T13:04:48;11.88;;;6.15;;
49828;SDS011;35723;51.194;5.112;2023-06-10T13:07:14;13.32;;;5.80;;
49828;SDS011;35723;51.194;5.112;2023-06-10T13:09:41;12.32;;;6.20;;
49828;SDS011;35723;51.194;5.112;2023-06-10T13:12:07;13.30;;;6.30;;
49828;SDS011;35723;51.194;5.112;2023-06-10T13:14:33;13.10;;;5.93;;
49828;SDS011;35723;51.194;5.112;2023-06-10T13:16:59;13.48;;;6.88;;
49828;SDS011;35723;51.194;5.112;2023-06-10T13:19:24;12.77;;;6.40;;
49828;SDS011;35723;51.194;5.112;2023-06-10T13:21:51;15.85;;;6.60;;
49828;SDS011;35723;51.194;5.112;2023-06-10T13:24:17;11.57;;;6.50;;
49828;SDS011;35723;51.194;5.112;2023-06-10T13:26:43;13.98;;;6.55;;
49828;SDS011;35723;51.194;5.112;2023-06-10T13:29:08;11.75;;;6.40;;
49828;SDS011;35723;51.194;5.112;2023-06-10T13:31:39;14.68;;;6.60;;
49828;SDS011;35723;51.194;5.112;2023-06-10T13:34:05;13.70;;;6.40;;
49828;SDS011;35723;51.194;5.112;2023-06-10T13:36:31;11.00;;;6.18;;
49828;SDS011;35723;51.194;5.112;2023-06-10T13:38:57;14.52;;;6.47;;
49828;SDS011;35723;51.194;5.112;2023-06-10T13:41:22;12.02;;;6.35;;
49828;SDS011;35723;51.194;5.112;2023-06-10T13:43:48;12.43;;;6.40;;
49828;SDS011;35723;51.194;5.112;2023-06-10T13:46:14;13.05;;;6.30;;
49828;SDS011;35723;51.194;5.112;2023-06-10T13:48:39;14.40;;;6.15;;
49828;SDS011;35723;51.194;5.112;2023-06-10T13:51:05;14.70;;;6.60;;
49828;SDS011;35723;51.194;5.112;2023-06-10T13:53:31;12.73;;;6.53;;
49828;SDS011;35723;51.194;5.112;2023-06-10T13:55:57;13.73;;;6.68;;
49828;SDS011;35723;51.194;5.112;2023-06-10T13:58:23;15.00;;;6.40;;
49828;SDS011;35723;51.194;5.112;2023-06-10T14:00:48;12.93;;;6.20;;
49828;SDS011;35723;51.194;5.112;2023-06-10T14:03:14;12.85;;;6.65;;
49828;SDS011;35723;51.194;5.112;2023-06-10T14:05:40;12.95;;;6.28;;
49828;SDS011;35723;51.194;5.112;2023-06-10T14:08:06;11.32;;;6.07;;
49828;SDS011;35723;51.194;5.112;2023-06-10T14:10:32;14.65;;;5.70;;
49828;SDS011;35723;51.194;5.112;2023-06-10T14:12:58;11.02;;;5.60;;
49828;SDS011;35723;51.194;5.112;2023-06-10T14:15:23;12.52;;;5.20;;
49828;SDS011;35723;51.194;5.112;2023-06-10T14:17:49;10.15;;;5.55;;
49828;SDS011;35723;51.194;5.112;2023-06-10T14:20:15;11.45;;;5.50;;
49828;SDS011;35723;51.194;5.112;2023-06-10T14:22:41;13.00;;;5.60;;
49828;SDS011;35723;51.194;5.112;2023-06-10T14:25:06;9.43;;;5.63;;
49828;SDS011;35723;51.194;5.112;2023-06-10T14:27:32;12.93;;;5.97;;
49828;SDS011;35723;51.194;5.112;2023-06-10T14:29:58;16.80;;;6.05;;
49828;SDS011;35723;51.194;5.112;2023-06-10T14:32:23;13.95;;;5.72;;
49828;SDS011;35723;51.194;5.112;2023-06-10T14:34:49;12.70;;;5.93;;
49828;SDS011;35723;51.194;5.112;2023-06-10T14:37:15;14.85;;;6.35;;
49828;SDS011;35723;51.194;5.112;2023-06-10T14:39:40;11.45;;;5.93;;
49828;SDS011;35723;51.194;5.112;2023-06-10T14:42:06;8.85;;;5.55;;
49828;SDS011;35723;51.194;5.112;2023-06-10T14:44:32;12.70;;;5.13;;
49828;SDS011;35723;51.194;5.112;2023-06-10T14:46:57;12.00;;;5.20;;